Time;durP1;ratioP1;P1;durP2;ratioP2;P2;SDS_P1;SDS_P2;PMS_P1;PMS_P2;Temp;Humidity;BMP_temperature;BMP_pressure;BME280_temperature;BME280_humidity;BME280_pressure;Samples;Min_cycle;Max_cycle;Signal;HPM_P1;HPM_P2
2023/12/05 00:02:23;;;;;;;10.82;3.38;;;;;;;;;;6185839;23;19915;-85
2023/12/05 00:04:50;;;;;;;7.47;4.25;;;;;;;;;;6213430;23;20020;-85
2023/12/05 00:07:19;;;;;;;6.57;4.43;;;;;;;;;;6185655;23;20012;-84
2023/12/05 00:09:45;;;;;;;34.80;15.65;;;;;;;;;;6184852;23;20402;-85
2023/12/05 00:12:11;;;;;;;20.30;12.90;;;;;;;;;;6185581;23;20012;-84
2023/12/05 00:14:44;;;;;;;9.02;4.18;;;;;;;;;;6185878;23;20512;-86
2023/12/05 00:17:33;;;;;;;1.85;1.48;;;;;;;;;;6185608;23;20008;-85
2023/12/05 00:20:05;;;;;;;3.22;1.73;;;;;;;;;;6185018;23;20031;-86
2023/12/05 00:22:35;;;;;;;3.05;1.42;;;;;;;;;;6185582;23;20091;-86
2023/12/05 00:25:09;;;;;;;10.88;1.65;;;;;;;;;;6184471;23;20033;-86
2023/12/05 00:27:35;;;;;;;4.32;2.10;;;;;;;;;;6185293;23;20011;-84
2023/12/05 00:30:05;;;;;;;11.73;5.25;;;;;;;;;;6185312;23;20059;-85
2023/12/05 00:32:36;;;;;;;35.92;7.53;;;;;;;;;;6186280;23;20017;-85
2023/12/05 00:35:03;;;;;;;19.67;9.05;;;;;;;;;;6186406;23;20037;-85
2023/12/05 00:37:32;;;;;;;16.38;8.55;;;;;;;;;;6185524;23;20036;-85
2023/12/05 00:39:58;;;;;;;11.27;4.22;;;;;;;;;;6186016;23;20126;-85
2023/12/05 00:42:26;;;;;;;8.70;3.60;;;;;;;;;;6185048;23;20023;-85
2023/12/05 00:44:52;;;;;;;4.55;2.50;;;;;;;;;;6184864;23;20020;-84
2023/12/05 00:47:24;;;;;;;2.97;1.48;;;;;;;;;;6185126;23;20088;-85
2023/12/05 00:49:50;;;;;;;8.57;2.53;;;;;;;;;;6186528;23;20092;-85
2023/12/05 00:52:16;;;;;;;3.33;1.58;;;;;;;;;;6185240;23;20092;-85
2023/12/05 00:54:44;;;;;;;9.07;3.25;;;;;;;;;;6185748;23;20039;-85
2023/12/05 00:57:15;;;;;;;37.40;14.82;;;;;;;;;;6184818;23;20000;-84
2023/12/05 00:59:41;;;;;;;37.53;13.82;;;;;;;;;;6184880;23;20075;-85
2023/12/05 01:02:09;;;;;;;20.55;6.25;;;;;;;;;;6185155;23;20005;-85
2023/12/05 01:04:41;;;;;;;9.95;3.60;;;;;;;;;;6186263;23;20020;-85
2023/12/05 01:07:16;;;;;;;6.03;1.90;;;;;;;;;;6186333;23;20371;-85
2023/12/05 01:09:55;;;;;;;;;;;;;;;;;;;;;
2023/12/05 01:12:21;;;;;;;3.72;1.05;;;;;;;;;;6178795;23;20013;-85
2023/12/05 01:14:52;;;;;;;3.85;1.48;;;;;;;;;;6179446;23;20045;-85
2023/12/05 01:17:19;;;;;;;8.35;3.25;;;;;;;;;;6179244;23;20009;-85
2023/12/05 01:19:50;;;;;;;3.67;1.73;;;;;;;;;;6179909;23;20049;-85
2023/12/05 01:22:18;;;;;;;0.95;0.40;;;;;;;;;;6178995;23;20009;-85
2023/12/05 01:24:44;;;;;;;1.70;0.73;;;;;;;;;;6178292;23;20029;-84
2023/12/05 01:27:10;;;;;;;2.47;0.80;;;;;;;;;;6178059;23;20361;-84
2023/12/05 01:29:36;;;;;;;2.42;0.65;;;;;;;;;;6178521;23;20023;-84
2023/12/05 01:32:02;;;;;;;0.73;0.55;;;;;;;;;;6178707;23;20005;-84
2023/12/05 01:34:28;;;;;;;0.17;0.10;;;;;;;;;;6178028;23;20021;-83
2023/12/05 01:36:54;;;;;;;3.00;0.30;;;;;;;;;;6178711;23;20009;-84
2023/12/05 01:39:20;;;;;;;0.95;0.50;;;;;;;;;;6178862;23;20052;-84
2023/12/05 01:41:55;;;;;;;0.17;0.13;;;;;;;;;;6184623;23;20020;-85
2023/12/05 01:44:34;;;;;;;1.20;0.38;;;;;;;;;;6185883;23;20021;-84
2023/12/05 01:47:16;;;;;;;0.15;0.15;;;;;;;;;;6185064;23;20009;-85
2023/12/05 01:50:03;;;;;;;;;;;;;;;;;;;;;
2023/12/05 01:52:30;;;;;;;5.22;0.30;;;;;;;;;;6212082;23;20091;-84
2023/12/05 01:54:56;;;;;;;2.65;0.65;;;;;;;;;;6210826;23;20348;-84
2023/12/05 01:57:28;;;;;;;0.50;0.28;;;;;;;;;;6184844;23;20009;-84
2023/12/05 01:59:56;;;;;;;1.10;0.50;;;;;;;;;;6185654;23;20028;-84
2023/12/05 02:02:25;;;;;;;1.63;1.10;;;;;;;;;;6184758;23;20036;-83
2023/12/05 02:04:51;;;;;;;2.42;1.00;;;;;;;;;;6184543;23;21883;-84
2023/12/05 02:07:17;;;;;;;2.63;0.98;;;;;;;;;;6211192;23;20306;-83
2023/12/05 02:09:44;;;;;;;2.22;0.68;;;;;;;;;;6184832;23;20013;-84
2023/12/05 02:12:13;;;;;;;1.40;0.77;;;;;;;;;;6184569;23;20432;-84
2023/12/05 02:14:39;;;;;;;2.10;1.27;;;;;;;;;;6211118;23;20067;-84
2023/12/05 02:17:15;;;;;;;5.88;1.05;;;;;;;;;;6210981;23;20096;-83
2023/12/05 02:19:53;;;;;;;6.57;1.05;;;;;;;;;;6211695;23;20017;-83
2023/12/05 02:22:34;;;;;;;3.53;0.50;;;;;;;;;;6183714;23;20008;-83
2023/12/05 02:25:03;;;;;;;2.05;0.73;;;;;;;;;;6183801;23;20368;-84
2023/12/05 02:27:46;;;;;;;1.08;0.63;;;;;;;;;;6184416;23;20017;-85
2023/12/05 02:30:14;;;;;;;1.55;0.85;;;;;;;;;;6211570;23;20044;-85
2023/12/05 02:32:40;;;;;;;5.10;0.70;;;;;;;;;;6211503;23;19996;-84
2023/12/05 02:35:07;;;;;;;0.45;0.35;;;;;;;;;;6185228;23;20016;-84
2023/12/05 02:37:38;;;;;;;1.02;0.73;;;;;;;;;;6211407;23;20766;-84
2023/12/05 02:40:05;;;;;;;5.07;0.50;;;;;;;;;;6184969;23;20016;-84
2023/12/05 02:42:31;;;;;;;1.15;0.70;;;;;;;;;;6184730;23;20597;-85
2023/12/05 02:44:58;;;;;;;2.90;1.08;;;;;;;;;;6185617;23;20059;-84
2023/12/05 02:47:26;;;;;;;1.08;0.40;;;;;;;;;;6186020;23;20396;-84
2023/12/05 02:49:52;;;;;;;1.33;0.60;;;;;;;;;;6222665;23;20047;-84
2023/12/05 02:52:18;;;;;;;1.90;0.57;;;;;;;;;;6243472;23;20011;-84
2023/12/05 02:54:44;;;;;;;1.40;0.70;;;;;;;;;;6242268;23;20008;-84
2023/12/05 02:57:11;;;;;;;3.33;0.90;;;;;;;;;;6242159;23;20099;-84
2023/12/05 02:59:39;;;;;;;0.88;0.40;;;;;;;;;;6242320;23;20023;-84
2023/12/05 03:02:08;;;;;;;2.95;0.70;;;;;;;;;;6242003;23;20081;-85
2023/12/05 03:04:34;;;;;;;3.10;0.40;;;;;;;;;;6241920;23;20012;-85
2023/12/05 03:07:00;;;;;;;0.93;0.30;;;;;;;;;;6241444;23;20050;-85
2023/12/05 03:09:26;;;;;;;5.63;0.80;;;;;;;;;;6241065;23;20016;-84
2023/12/05 03:11:52;;;;;;;0.45;0.20;;;;;;;;;;6241291;23;20576;-84
2023/12/05 03:14:18;;;;;;;4.50;0.57;;;;;;;;;;6241025;23;20335;-84
2023/12/05 03:16:44;;;;;;;2.10;0.47;;;;;;;;;;6241605;23;20100;-84
2023/12/05 03:19:10;;;;;;;0.65;0.28;;;;;;;;;;6240884;23;20016;-84
2023/12/05 03:21:36;;;;;;;2.15;0.35;;;;;;;;;;6241103;23;20432;-85
2023/12/05 03:24:02;;;;;;;4.25;0.38;;;;;;;;;;6240674;23;20107;-85
2023/12/05 03:26:28;;;;;;;1.25;0.30;;;;;;;;;;6240573;23;20016;-86
2023/12/05 03:28:54;;;;;;;0.98;0.32;;;;;;;;;;6241002;23;20000;-85
2023/12/05 03:31:20;;;;;;;1.02;0.20;;;;;;;;;;6215424;23;20023;-86
2023/12/05 03:33:46;;;;;;;1.75;0.40;;;;;;;;;;6241396;23;20026;-85
2023/12/05 03:36:12;;;;;;;0.90;0.77;;;;;;;;;;6215645;23;20000;-85
2023/12/05 03:38:41;;;;;;;0.55;0.35;;;;;;;;;;6241433;23;20032;-85
2023/12/05 03:41:12;;;;;;;1.25;0.43;;;;;;;;;;6240223;23;20040;-85
2023/12/05 03:43:38;;;;;;;2.38;0.65;;;;;;;;;;6241680;23;20023;-84
2023/12/05 03:46:04;;;;;;;0.90;0.43;;;;;;;;;;6240507;23;20514;-84
2023/12/05 03:48:30;;;;;;;1.73;0.30;;;;;;;;;;6241306;23;20487;-84
2023/12/05 03:50:56;;;;;;;0.30;0.25;;;;;;;;;;6240286;23;20050;-84
2023/12/05 03:53:22;;;;;;;0.10;0.10;;;;;;;;;;6241063;23;20380;-84
2023/12/05 03:55:48;;;;;;;0.75;0.43;;;;;;;;;;6241508;23;20004;-84
2023/12/05 03:58:14;;;;;;;0.05;0.00;;;;;;;;;;6241013;23;20103;-84
2023/12/05 04:00:40;;;;;;;0.40;0.20;;;;;;;;;;6240314;23;20012;-84
2023/12/05 04:03:06;;;;;;;1.38;0.68;;;;;;;;;;6241516;23;20012;-84
2023/12/05 04:05:32;;;;;;;1.13;0.50;;;;;;;;;;6240982;23;20008;-84
2023/12/05 04:07:58;;;;;;;1.00;0.43;;;;;;;;;;6240600;23;20008;-84
2023/12/05 04:10:24;;;;;;;0.60;0.30;;;;;;;;;;6242433;23;20008;-84
2023/12/05 04:12:50;;;;;;;1.15;0.40;;;;;;;;;;6243285;23;20028;-85
2023/12/05 04:15:16;;;;;;;1.20;0.60;;;;;;;;;;6243006;23;20008;-84
2023/12/05 04:17:42;;;;;;;0.40;0.20;;;;;;;;;;6241522;23;20012;-84
2023/12/05 04:20:10;;;;;;;0.43;0.22;;;;;;;;;;6240813;23;20008;-84
2023/12/05 04:22:36;;;;;;;0.75;0.40;;;;;;;;;;6240712;23;20016;-84
2023/12/05 04:25:05;;;;;;;2.60;0.93;;;;;;;;;;6240515;23;20026;-85
2023/12/05 04:27:40;;;;;;;1.33;0.63;;;;;;;;;;6240323;23;20050;-86
2023/12/05 04:30:10;;;;;;;2.08;0.30;;;;;;;;;;6240855;23;20004;-86
2023/12/05 04:32:41;;;;;;;1.65;0.90;;;;;;;;;;6240419;23;20085;-86
2023/12/05 04:35:45;;;;;;;0.93;0.40;;;;;;;;;;6240199;23;20022;-86
2023/12/05 04:38:22;;;;;;;0.93;0.55;;;;;;;;;;6169959;23;20024;-86
2023/12/05 04:40:57;;;;;;;1.42;0.52;;;;;;;;;;6240052;23;20451;-85
2023/12/05 04:43:25;;;;;;;2.20;0.65;;;;;;;;;;6240213;23;20352;-85
2023/12/05 04:45:51;;;;;;;1.48;0.68;;;;;;;;;;6240017;23;20024;-86
2023/12/05 04:48:17;;;;;;;1.83;1.02;;;;;;;;;;6240815;23;20008;-85
2023/12/05 04:50:46;;;;;;;2.15;1.00;;;;;;;;;;6240084;23;20364;-86
2023/12/05 04:53:15;;;;;;;1.88;0.40;;;;;;;;;;6240222;23;20016;-86
2023/12/05 04:55:43;;;;;;;1.60;0.73;;;;;;;;;;6240721;23;20008;-85
2023/12/05 04:58:11;;;;;;;2.80;0.73;;;;;;;;;;6240742;23;20107;-85
2023/12/05 05:00:43;;;;;;;2.08;1.00;;;;;;;;;;6240872;23;20015;-85
2023/12/05 05:03:16;;;;;;;1.63;0.65;;;;;;;;;;6241538;23;20012;-85
2023/12/05 05:05:42;;;;;;;2.88;0.68;;;;;;;;;;6241895;23;20016;-85
2023/12/05 05:08:11;;;;;;;2.55;1.08;;;;;;;;;;6241152;23;20012;-85
2023/12/05 05:10:40;;;;;;;4.28;1.33;;;;;;;;;;6215699;23;20008;-85
2023/12/05 05:13:06;;;;;;;2.20;0.93;;;;;;;;;;6216096;23;20407;-85
2023/12/05 05:15:42;;;;;;;2.17;0.95;;;;;;;;;;6240827;23;20011;-85
2023/12/05 05:18:10;;;;;;;1.38;0.38;;;;;;;;;;6243752;23;20458;-85
2023/12/05 05:20:38;;;;;;;1.83;0.93;;;;;;;;;;6216254;23;20012;-84
2023/12/05 05:23:06;;;;;;;2.35;0.50;;;;;;;;;;6242052;23;20015;-85
2023/12/05 05:25:32;;;;;;;2.35;1.40;;;;;;;;;;6235863;23;20035;-84
2023/12/05 05:28:07;;;;;;;3.05;1.40;;;;;;;;;;6213378;23;20019;-85
2023/12/05 05:30:35;;;;;;;3.50;1.23;;;;;;;;;;6241036;23;20328;-85
2023/12/05 05:33:01;;;;;;;2.15;0.93;;;;;;;;;;6241032;23;20024;-85
2023/12/05 05:35:29;;;;;;;3.47;1.67;;;;;;;;;;6241292;23;20004;-85
2023/12/05 05:37:55;;;;;;;6.03;1.38;;;;;;;;;;6239866;23;20015;-84
2023/12/05 05:40:22;;;;;;;1.67;0.82;;;;;;;;;;6239234;23;20015;-84
2023/12/05 05:42:48;;;;;;;2.15;1.20;;;;;;;;;;6240594;23;20039;-84
2023/12/05 05:45:14;;;;;;;4.35;1.05;;;;;;;;;;6239407;23;20004;-83
2023/12/05 05:47:40;;;;;;;5.50;1.40;;;;;;;;;;6240224;23;20058;-83
2023/12/05 05:50:06;;;;;;;2.00;0.63;;;;;;;;;;6239441;23;20004;-83
2023/12/05 05:52:32;;;;;;;2.22;1.42;;;;;;;;;;6242534;23;20009;-83
2023/12/05 05:54:58;;;;;;;5.10;1.08;;;;;;;;;;6239881;23;20083;-83
2023/12/05 05:57:24;;;;;;;2.22;1.42;;;;;;;;;;6240683;23;20115;-83
2023/12/05 05:59:50;;;;;;;9.85;1.60;;;;;;;;;;6239948;23;20031;-83
2023/12/05 06:02:16;;;;;;;4.57;2.45;;;;;;;;;;6240122;23;20364;-83
2023/12/05 06:04:42;;;;;;;5.85;2.05;;;;;;;;;;6239904;23;20042;-83
2023/12/05 06:07:09;;;;;;;1.55;0.77;;;;;;;;;;6241722;23;20008;-83
2023/12/05 06:09:35;;;;;;;1.33;1.00;;;;;;;;;;6242420;23;20635;-83
2023/12/05 06:12:02;;;;;;;10.50;1.20;;;;;;;;;;6241639;23;20006;-82
2023/12/05 06:14:28;;;;;;;15.68;5.45;;;;;;;;;;6242146;23;20012;-82
2023/12/05 06:16:54;;;;;;;5.85;3.42;;;;;;;;;;6239192;23;20016;-83
2023/12/05 06:19:20;;;;;;;3.30;1.83;;;;;;;;;;6242706;23;20008;-80
2023/12/05 06:21:46;;;;;;;6.60;3.85;;;;;;;;;;6242891;23;20019;-83
2023/12/05 06:24:12;;;;;;;6.82;4.07;;;;;;;;;;6241865;23;20431;-84
2023/12/05 06:26:38;;;;;;;3.28;1.38;;;;;;;;;;6241507;23;20413;-84
2023/12/05 06:29:05;;;;;;;1.75;1.05;;;;;;;;;;6242180;23;20003;-83
2023/12/05 06:31:31;;;;;;;1.17;0.65;;;;;;;;;;6243201;23;20023;-82
2023/12/05 06:33:58;;;;;;;10.40;1.33;;;;;;;;;;6243682;23;20004;-82
2023/12/05 06:36:24;;;;;;;1.77;0.75;;;;;;;;;;6242521;23;20012;-82
2023/12/05 06:38:50;;;;;;;2.42;0.28;;;;;;;;;;6242763;23;20039;-81
2023/12/05 06:41:16;;;;;;;3.25;0.60;;;;;;;;;;6242741;23;20412;-82
2023/12/05 06:43:42;;;;;;;6.85;0.20;;;;;;;;;;6241681;23;20013;-81
2023/12/05 06:46:08;;;;;;;1.23;0.47;;;;;;;;;;6242279;23;20008;-81
2023/12/05 06:48:34;;;;;;;0.00;0.00;;;;;;;;;;6242455;23;20004;-82
2023/12/05 06:51:00;;;;;;;0.00;0.00;;;;;;;;;;6243098;23;20004;-82
2023/12/05 06:53:26;;;;;;;0.63;0.10;;;;;;;;;;6240850;23;20047;-81
2023/12/05 06:55:52;;;;;;;0.52;0.10;;;;;;;;;;6243497;23;20000;-81
2023/12/05 06:58:18;;;;;;;1.05;0.65;;;;;;;;;;6243277;23;20083;-81
2023/12/05 07:00:45;;;;;;;0.00;0.00;;;;;;;;;;6242959;23;20035;-81
2023/12/05 07:03:12;;;;;;;0.32;0.20;;;;;;;;;;6242401;23;20058;-82
2023/12/05 07:05:38;;;;;;;0.68;0.40;;;;;;;;;;6241347;23;20008;-81
2023/12/05 07:08:06;;;;;;;0.63;0.03;;;;;;;;;;6241997;23;20035;-81
2023/12/05 07:10:32;;;;;;;0.20;0.20;;;;;;;;;;6242803;23;20004;-81
2023/12/05 07:12:58;;;;;;;0.15;0.13;;;;;;;;;;6242668;23;20050;-82
2023/12/05 07:15:24;;;;;;;0.20;0.15;;;;;;;;;;6242994;23;20011;-81
2023/12/05 07:17:50;;;;;;;0.00;0.00;;;;;;;;;;6242897;23;20016;-81
2023/12/05 07:20:16;;;;;;;0.38;0.15;;;;;;;;;;6243305;23;20019;-81
2023/12/05 07:22:45;;;;;;;1.15;0.75;;;;;;;;;;6240509;23;20023;-81
2023/12/05 07:25:11;;;;;;;0.45;0.30;;;;;;;;;;6242840;23;20027;-82
2023/12/05 07:27:38;;;;;;;0.55;0.30;;;;;;;;;;6242757;23;20067;-81
2023/12/05 07:30:04;;;;;;;0.22;0.20;;;;;;;;;;6242949;23;20367;-81
2023/12/05 07:32:30;;;;;;;3.25;0.50;;;;;;;;;;6242458;23;20019;-82
2023/12/05 07:34:56;;;;;;;0.20;0.20;;;;;;;;;;6242479;23;20000;-82
2023/12/05 07:37:22;;;;;;;0.28;0.17;;;;;;;;;;6241279;23;20016;-82
2023/12/05 07:39:48;;;;;;;1.85;0.98;;;;;;;;;;6242479;23;20003;-82
2023/12/05 07:42:15;;;;;;;0.30;0.20;;;;;;;;;;6242534;23;20032;-82
2023/12/05 07:44:41;;;;;;;0.20;0.10;;;;;;;;;;6241999;23;20042;-82
2023/12/05 07:47:07;;;;;;;0.52;0.38;;;;;;;;;;6242437;23;20016;-82
2023/12/05 07:49:34;;;;;;;0.63;0.43;;;;;;;;;;6240209;23;20015;-82
2023/12/05 07:52:01;;;;;;;3.80;1.63;;;;;;;;;;6242682;23;20008;-82
2023/12/05 07:54:27;;;;;;;4.32;1.83;;;;;;;;;;6242110;23;20432;-82
2023/12/05 07:56:53;;;;;;;6.30;2.30;;;;;;;;;;6242491;23;20013;-82
2023/12/05 07:59:19;;;;;;;2.50;0.98;;;;;;;;;;6242253;23;20008;-82
2023/12/05 08:01:46;;;;;;;3.88;2.47;;;;;;;;;;6242501;23;20731;-82
2023/12/05 08:04:12;;;;;;;9.45;2.35;;;;;;;;;;6240145;23;20062;-82
2023/12/05 08:06:39;;;;;;;3.78;1.17;;;;;;;;;;6242822;23;20028;-82
2023/12/05 08:09:06;;;;;;;3.33;0.73;;;;;;;;;;6241759;23;20367;-82
2023/12/05 08:11:32;;;;;;;8.90;3.13;;;;;;;;;;6242578;23;20043;-82
2023/12/05 08:13:58;;;;;;;2.50;1.10;;;;;;;;;;6242251;23;20802;-82
2023/12/05 08:16:24;;;;;;;3.05;1.58;;;;;;;;;;6242548;23;20742;-82
2023/12/05 08:18:50;;;;;;;0.50;0.30;;;;;;;;;;6242248;23;20015;-82
2023/12/05 08:21:16;;;;;;;3.17;0.98;;;;;;;;;;6242247;23;20019;-82
2023/12/05 08:23:42;;;;;;;4.55;1.67;;;;;;;;;;6241960;23;20447;-82
2023/12/05 08:26:08;;;;;;;2.60;1.33;;;;;;;;;;6242101;23;20019;-82
2023/12/05 08:28:34;;;;;;;4.18;1.40;;;;;;;;;;6240820;23;20004;-82
2023/12/05 08:31:00;;;;;;;1.83;0.50;;;;;;;;;;6241720;23;20084;-82
2023/12/05 08:33:26;;;;;;;5.40;1.23;;;;;;;;;;6242584;23;20008;-82
2023/12/05 08:35:52;;;;;;;2.63;0.95;;;;;;;;;;6241940;23;20012;-82
2023/12/05 08:38:18;;;;;;;7.38;1.95;;;;;;;;;;6240880;23;20396;-82
2023/12/05 08:40:44;;;;;;;6.40;2.60;;;;;;;;;;6241966;23;20012;-82
2023/12/05 08:43:10;;;;;;;8.27;2.17;;;;;;;;;;6242298;23;20019;-82
2023/12/05 08:45:36;;;;;;;3.58;1.95;;;;;;;;;;6240012;23;20784;-82
2023/12/05 08:48:02;;;;;;;3.85;0.70;;;;;;;;;;6242667;23;20005;-82
2023/12/05 08:50:28;;;;;;;5.53;0.70;;;;;;;;;;6241473;23;20004;-82
2023/12/05 08:52:54;;;;;;;0.52;0.40;;;;;;;;;;6240589;23;20008;-82
2023/12/05 08:55:20;;;;;;;7.35;3.20;;;;;;;;;;6242223;23;20011;-82
2023/12/05 08:57:46;;;;;;;13.77;4.65;;;;;;;;;;6240727;23;20107;-82
2023/12/05 09:00:13;;;;;;;13.02;5.40;;;;;;;;;;6241054;23;20031;-82
2023/12/05 09:02:39;;;;;;;5.82;4.75;;;;;;;;;;6242541;23;20011;-82
2023/12/05 09:05:05;;;;;;;10.35;3.65;;;;;;;;;;6239740;23;20662;-82
2023/12/05 09:07:31;;;;;;;6.10;3.35;;;;;;;;;;6242498;23;20004;-83
2023/12/05 09:09:57;;;;;;;1.70;1.35;;;;;;;;;;6241904;23;20004;-82
2023/12/05 09:12:23;;;;;;;1.13;0.40;;;;;;;;;;6242210;23;20008;-82
2023/12/05 09:14:49;;;;;;;0.82;0.52;;;;;;;;;;6241873;23;20016;-82
2023/12/05 09:17:15;;;;;;;1.02;0.35;;;;;;;;;;6239688;23;20091;-82
2023/12/05 09:19:41;;;;;;;1.02;0.65;;;;;;;;;;6240293;23;20091;-83
2023/12/05 09:22:07;;;;;;;1.13;0.63;;;;;;;;;;6240037;23;20115;-83
2023/12/05 09:24:33;;;;;;;2.70;1.33;;;;;;;;;;6241705;23;20047;-82
2023/12/05 09:26:59;;;;;;;5.10;0.60;;;;;;;;;;6239579;23;20027;-82
2023/12/05 09:29:27;;;;;;;2.72;1.25;;;;;;;;;;6242208;23;20420;-82
2023/12/05 09:31:53;;;;;;;2.67;1.77;;;;;;;;;;6239359;23;20016;-82
2023/12/05 09:34:19;;;;;;;1.80;0.88;;;;;;;;;;6242006;23;20047;-82
2023/12/05 09:36:45;;;;;;;1.10;0.63;;;;;;;;;;6241624;23;20309;-83
2023/12/05 09:39:11;;;;;;;2.63;0.82;;;;;;;;;;6241544;23;20008;-82
2023/12/05 09:41:48;;;;;;;0.73;0.38;;;;;;;;;;6241223;23;20015;-82
2023/12/05 09:44:15;;;;;;;2.67;1.42;;;;;;;;;;6242009;23;20040;-82
2023/12/05 09:46:42;;;;;;;1.25;0.77;;;;;;;;;;6239477;23;20016;-82
2023/12/05 09:49:09;;;;;;;4.50;0.93;;;;;;;;;;6242274;23;20008;-82
2023/12/05 09:51:35;;;;;;;1.70;0.93;;;;;;;;;;6241291;23;20004;-82
2023/12/05 09:54:01;;;;;;;2.38;1.42;;;;;;;;;;6239336;23;20008;-82
2023/12/05 09:56:28;;;;;;;1.95;1.42;;;;;;;;;;6241400;23;20090;-82
2023/12/05 09:58:54;;;;;;;2.05;1.10;;;;;;;;;;6242162;23;20008;-82
2023/12/05 10:01:23;;;;;;;3.15;1.42;;;;;;;;;;6240287;23;20050;-82
2023/12/05 10:03:53;;;;;;;1.08;0.60;;;;;;;;;;6239908;23;20317;-82
2023/12/05 10:06:20;;;;;;;11.30;3.42;;;;;;;;;;6240913;23;20015;-82
2023/12/05 10:08:47;;;;;;;4.80;1.92;;;;;;;;;;6241516;23;20009;-82
2023/12/05 10:11:14;;;;;;;4.20;1.98;;;;;;;;;;6241087;23;20001;-82
2023/12/05 10:13:40;;;;;;;2.83;1.13;;;;;;;;;;6241772;23;20008;-82
2023/12/05 10:16:07;;;;;;;3.08;0.80;;;;;;;;;;6240953;23;20004;-82
2023/12/05 10:18:34;;;;;;;0.73;0.20;;;;;;;;;;6241882;23;20018;-81
2023/12/05 10:21:00;;;;;;;0.20;0.20;;;;;;;;;;6240609;23;20079;-82
2023/12/05 10:23:26;;;;;;;0.13;0.10;;;;;;;;;;6241638;23;20008;-82
2023/12/05 10:25:53;;;;;;;2.63;1.23;;;;;;;;;;6240629;23;20018;-81
2023/12/05 10:28:19;;;;;;;2.00;0.82;;;;;;;;;;6241688;23;20008;-82
2023/12/05 10:30:45;;;;;;;0.70;0.32;;;;;;;;;;6241595;23;20014;-82
2023/12/05 10:33:12;;;;;;;0.47;0.28;;;;;;;;;;6242291;23;20183;-82
2023/12/05 10:35:38;;;;;;;1.05;0.55;;;;;;;;;;6241397;23;20507;-82
2023/12/05 10:38:05;;;;;;;6.60;1.67;;;;;;;;;;6241644;23;20016;-82
2023/12/05 10:40:49;;;;;;;3.55;1.10;;;;;;;;;;6240982;23;20047;-83
2023/12/05 10:43:15;;;;;;;4.25;2.50;;;;;;;;;;6241321;23;20466;-83
2023/12/05 10:45:41;;;;;;;7.53;2.22;;;;;;;;;;6241053;23;20004;-82
2023/12/05 10:48:07;;;;;;;3.40;1.42;;;;;;;;;;6241219;22;20008;-82
2023/12/05 10:50:33;;;;;;;3.60;1.85;;;;;;;;;;6239110;23;20043;-82
2023/12/05 10:53:02;;;;;;;1.88;1.13;;;;;;;;;;6239845;23;20012;-82
2023/12/05 10:55:28;;;;;;;6.00;1.15;;;;;;;;;;6238788;23;20046;-82
2023/12/05 10:57:54;;;;;;;3.25;0.77;;;;;;;;;;6241611;23;20016;-83
2023/12/05 11:00:20;;;;;;;5.45;0.70;;;;;;;;;;6240902;23;20026;-82
2023/12/05 11:02:48;;;;;;;2.97;0.80;;;;;;;;;;6240403;23;20022;-82
2023/12/05 11:05:15;;;;;;;0.47;0.20;;;;;;;;;;6240810;23;20070;-82
2023/12/05 11:07:41;;;;;;;2.20;0.70;;;;;;;;;;6243041;23;20008;-82
2023/12/05 11:10:07;;;;;;;0.60;0.25;;;;;;;;;;6243291;23;20007;-82
2023/12/05 11:12:35;;;;;;;1.35;0.55;;;;;;;;;;6242662;23;20012;-82
2023/12/05 11:15:00;;;;;;;;;;;;;;;;;;6243532;23;20534;-83
2023/12/05 11:17:34;;;;;;;0.60;0.40;;;;;;;;;;6241999;23;19942;-82
2023/12/05 11:20:00;;;;;;;2.83;1.38;;;;;;;;;;6239717;23;20686;-82
2023/12/05 11:22:45;;;;;;;5.75;0.82;;;;;;;;;;6240187;23;20016;-83
2023/12/05 11:25:32;;;;;;;2.80;1.40;;;;;;;;;;6240919;23;20419;-82
2023/12/05 11:28:04;;;;;;;5.50;1.55;;;;;;;;;;6240382;23;20686;-82
2023/12/05 11:30:41;;;;;;;2.30;1.15;;;;;;;;;;6243091;23;20020;-82
2023/12/05 11:33:07;;;;;;;;;;;;;;;;;;6243465;23;20008;-82
2023/12/05 11:35:42;;;;;;;1.17;0.85;;;;;;;;;;6242795;23;19900;-82
2023/12/05 11:38:16;;;;;;;2.03;0.70;;;;;;;;;;6242449;23;20012;-82
2023/12/05 11:40:42;;;;;;;4.75;0.82;;;;;;;;;;6242931;23;20039;-82
2023/12/05 11:43:08;;;;;;;;;;;;;;;;;;6243302;23;20081;-82
2023/12/05 11:45:38;;;;;;;5.55;1.33;;;;;;;;;;6242600;23;20644;-82
2023/12/05 11:48:04;;;;;;;3.05;0.95;;;;;;;;;;6241641;23;20359;-82
2023/12/05 11:50:40;;;;;;;5.00;2.05;;;;;;;;;;6241941;23;20518;-82
2023/12/05 11:53:08;;;;;;;2.08;0.77;;;;;;;;;;6243005;23;20015;-82
2023/12/05 11:55:34;;;;;;;0.80;0.30;;;;;;;;;;6242445;23;20004;-83
2023/12/05 11:58:00;;;;;;;0.22;0.10;;;;;;;;;;6240902;23;20066;-82
2023/12/05 12:00:26;;;;;;;2.25;0.20;;;;;;;;;;6240941;23;20012;-82
2023/12/05 12:02:59;;;;;;;8.05;1.25;;;;;;;;;;6241982;23;20016;-82
2023/12/05 12:05:25;;;;;;;3.65;0.43;;;;;;;;;;6241795;23;20035;-82
2023/12/05 12:07:52;;;;;;;2.35;0.75;;;;;;;;;;6242176;23;20015;-82
2023/12/05 12:10:18;;;;;;;4.18;0.98;;;;;;;;;;6242007;23;20007;-83
2023/12/05 12:12:45;;;;;;;2.90;0.55;;;;;;;;;;6241418;23;20008;-82
2023/12/05 12:15:11;;;;;;;2.63;0.30;;;;;;;;;;6240438;23;20008;-82
2023/12/05 12:17:41;;;;;;;0.40;0.20;;;;;;;;;;6240968;23;20015;-83
2023/12/05 12:20:08;;;;;;;0.40;0.38;;;;;;;;;;6242074;23;20004;-82
2023/12/05 12:22:34;;;;;;;0.50;0.30;;;;;;;;;;6242681;23;20004;-83
2023/12/05 12:25:13;;;;;;;0.20;0.00;;;;;;;;;;6242248;23;20419;-82
2023/12/05 12:27:40;;;;;;;0.98;0.40;;;;;;;;;;6241519;23;20008;-82
2023/12/05 12:30:13;;;;;;;3.58;0.75;;;;;;;;;;6240541;23;20327;-83
2023/12/05 12:32:55;;;;;;;1.80;0.88;;;;;;;;;;6239892;23;20038;-82
2023/12/05 12:35:22;;;;;;;8.23;1.50;;;;;;;;;;6242211;23;20000;-83
2023/12/05 12:37:49;;;;;;;0.93;0.30;;;;;;;;;;6242305;23;20430;-83
2023/12/05 12:40:18;;;;;;;2.65;0.60;;;;;;;;;;6239939;23;20749;-82
2023/12/05 12:42:44;;;;;;;2.25;1.63;;;;;;;;;;6241391;23;20134;-82
2023/12/05 12:45:11;;;;;;;6.85;0.57;;;;;;;;;;6240291;23;20004;-82
2023/12/05 12:47:37;;;;;;;1.13;0.75;;;;;;;;;;6239831;23;20642;-82
2023/12/05 12:50:04;;;;;;;1.10;0.40;;;;;;;;;;6240302;23;20015;-82
2023/12/05 12:52:30;;;;;;;1.05;0.47;;;;;;;;;;6241857;23;20631;-82
2023/12/05 12:54:57;;;;;;;2.22;0.80;;;;;;;;;;6240315;23;20015;-82
2023/12/05 12:57:23;;;;;;;5.03;1.40;;;;;;;;;;6239552;23;20012;-82
2023/12/05 12:59:51;;;;;;;1.45;0.73;;;;;;;;;;6241950;23;20008;-82
2023/12/05 13:02:18;;;;;;;3.95;0.75;;;;;;;;;;6241339;23;20031;-82
2023/12/05 13:04:44;;;;;;;2.67;1.27;;;;;;;;;;6241941;23;20004;-82
2023/12/05 13:07:18;;;;;;;2.90;1.58;;;;;;;;;;6241374;23;20019;-82
2023/12/05 13:09:44;;;;;;;5.03;1.67;;;;;;;;;;6242022;23;20000;-82
2023/12/05 13:12:10;;;;;;;3.20;1.33;;;;;;;;;;6239199;23;20018;-82
2023/12/05 13:14:37;;;;;;;2.50;0.90;;;;;;;;;;6241846;23;20000;-82
2023/12/05 13:17:09;;;;;;;1.27;0.68;;;;;;;;;;6240651;23;20453;-82
2023/12/05 13:19:35;;;;;;;5.93;1.83;;;;;;;;;;6240065;23;20745;-82
2023/12/05 13:22:02;;;;;;;3.88;1.48;;;;;;;;;;6241758;23;20016;-82
2023/12/05 13:24:28;;;;;;;0.43;0.30;;;;;;;;;;6241308;23;20051;-82
2023/12/05 13:26:54;;;;;;;4.13;0.75;;;;;;;;;;6241282;23;20031;-82
2023/12/05 13:29:20;;;;;;;4.25;1.90;;;;;;;;;;6239404;23;20424;-82
2023/12/05 13:31:46;;;;;;;2.50;1.58;;;;;;;;;;6241251;23;20012;-82
2023/12/05 13:34:12;;;;;;;3.35;1.10;;;;;;;;;;6241175;23;20444;-82
2023/12/05 13:36:38;;;;;;;3.83;1.15;;;;;;;;;;6241459;23;20383;-82
2023/12/05 13:39:07;;;;;;;5.15;1.45;;;;;;;;;;6239807;23;20030;-82
2023/12/05 13:41:33;;;;;;;6.15;1.02;;;;;;;;;;6241800;23;20019;-82
2023/12/05 13:44:01;;;;;;;2.55;0.60;;;;;;;;;;6241409;23;20012;-82
2023/12/05 13:46:27;;;;;;;1.85;0.63;;;;;;;;;;6241755;23;20719;-82
2023/12/05 13:49:00;;;;;;;1.92;0.57;;;;;;;;;;6241275;23;20031;-82
2023/12/05 13:51:27;;;;;;;6.40;1.48;;;;;;;;;;6243404;23;20004;-82
2023/12/05 13:53:53;;;;;;;13.20;1.35;;;;;;;;;;6242678;23;20039;-82
2023/12/05 13:56:19;;;;;;;5.55;1.45;;;;;;;;;;6243693;23;20055;-82
2023/12/05 13:58:46;;;;;;;2.20;1.27;;;;;;;;;;6242031;23;20088;-82
2023/12/05 14:01:12;;;;;;;4.43;1.38;;;;;;;;;;6242446;23;20012;-82
2023/12/05 14:03:38;;;;;;;2.70;0.50;;;;;;;;;;6242129;23;20008;-82
2023/12/05 14:06:04;;;;;;;0.98;0.47;;;;;;;;;;6241507;23;20465;-82
2023/12/05 14:08:30;;;;;;;2.08;0.55;;;;;;;;;;6239766;23;20412;-82
2023/12/05 14:10:56;;;;;;;1.95;0.93;;;;;;;;;;6241533;23;20423;-82
2023/12/05 14:13:22;;;;;;;1.40;0.93;;;;;;;;;;6240799;23;20016;-82
2023/12/05 14:15:48;;;;;;;3.40;1.25;;;;;;;;;;6240041;23;20004;-82
2023/12/05 14:18:14;;;;;;;1.52;1.00;;;;;;;;;;6239939;23;20662;-83
2023/12/05 14:20:40;;;;;;;1.83;0.95;;;;;;;;;;6239625;23;20653;-83
2023/12/05 14:23:06;;;;;;;1.58;0.55;;;;;;;;;;6242482;23;20626;-82
2023/12/05 14:25:32;;;;;;;5.13;0.65;;;;;;;;;;6241603;23;20026;-82
2023/12/05 14:27:58;;;;;;;2.67;0.70;;;;;;;;;;6241732;23;20008;-82
2023/12/05 14:30:24;;;;;;;2.05;0.65;;;;;;;;;;6241121;23;20004;-82
2023/12/05 14:32:50;;;;;;;0.93;0.40;;;;;;;;;;6240764;23;20005;-82
2023/12/05 14:35:18;;;;;;;0.63;0.40;;;;;;;;;;6240791;23;20833;-82
2023/12/05 14:37:44;;;;;;;;;;;;;;;;;;6241568;23;20040;-82
2023/12/05 14:40:10;;;;;;;9.65;0.85;;;;;;;;;;6240641;23;19926;-82
2023/12/05 14:42:37;;;;;;;2.88;0.63;;;;;;;;;;6242999;23;20008;-82
2023/12/05 14:45:04;;;;;;;0.52;0.35;;;;;;;;;;6242562;23;20479;-82
2023/12/05 14:47:30;;;;;;;1.85;0.85;;;;;;;;;;6242768;23;20016;-82
2023/12/05 14:49:56;;;;;;;0.47;0.30;;;;;;;;;;6242832;23;20095;-82